createdAt,value
2023-03-16T00:04:10.903Z,3.40
2023-03-16T00:09:31.315Z,4.07
2023-03-16T00:14:49.093Z,2.95
2023-03-16T00:20:07.278Z,4.03
2023-03-16T00:25:24.534Z,3.45
2023-03-16T00:30:40.183Z,3.67
2023-03-16T00:36:02.501Z,3.63
2023-03-16T00:41:18.202Z,3.70
2023-03-16T00:46:34.254Z,3.45
2023-03-16T00:51:50.098Z,3.08
2023-03-16T00:57:06.090Z,4.00
2023-03-16T01:02:24.953Z,3.92
2023-03-16T01:07:43.179Z,3.35
2023-03-16T01:12:58.699Z,4.05
2023-03-16T01:18:14.472Z,3.95
2023-03-16T01:23:30.483Z,3.90
2023-03-16T01:28:47.381Z,3.75
2023-03-16T01:34:04.381Z,3.33
2023-03-16T01:39:20.213Z,3.53
2023-03-16T01:44:56.423Z,3.20
2023-03-16T01:50:12.291Z,3.95
2023-03-16T01:55:28.237Z,4.13
2023-03-16T02:00:45.861Z,4.13
2023-03-16T02:06:19.680Z,4.00
2023-03-16T02:11:35.917Z,4.45
2023-03-16T02:16:52.547Z,4.22
2023-03-16T02:22:10.271Z,3.88
2023-03-16T02:27:53.771Z,4.53
2023-03-16T02:33:10.425Z,5.10
2023-03-16T02:38:26.849Z,4.53
2023-03-16T02:43:48.497Z,3.90
2023-03-16T02:49:35.791Z,4.45
2023-03-16T02:54:51.804Z,3.88
2023-03-16T03:00:13.701Z,4.10
2023-03-16T03:05:29.562Z,3.83
2023-03-16T03:10:45.448Z,3.70
2023-03-16T03:16:02.219Z,3.58
2023-03-16T03:21:17.917Z,3.13
2023-03-16T03:26:33.769Z,4.30
2023-03-16T03:31:49.655Z,3.85
2023-03-16T03:37:05.817Z,3.53
2023-03-16T03:42:24.011Z,3.63
2023-03-16T03:47:40.894Z,3.78
2023-03-16T03:52:56.540Z,3.90
2023-03-16T03:58:12.404Z,5.60
2023-03-16T04:03:28.369Z,4.13
2023-03-16T04:08:44.119Z,4.28
2023-03-16T04:14:00.151Z,3.70
2023-03-16T04:19:16.057Z,3.83
2023-03-16T04:24:34.490Z,4.03
2023-03-16T04:29:50.322Z,3.88
2023-03-16T04:35:06.865Z,3.33
2023-03-16T04:40:22.417Z,3.05
2023-03-16T04:45:37.921Z,3.83
2023-03-16T04:50:54.873Z,3.72
2023-03-16T04:56:18.800Z,3.55
2023-03-16T05:01:34.351Z,3.78
2023-03-16T05:06:50.835Z,4.50
2023-03-16T05:12:06.685Z,3.47
2023-03-16T05:17:22.658Z,3.30
2023-03-16T05:22:40.715Z,3.10
2023-03-16T05:27:57.450Z,3.78
2023-03-16T05:33:13.443Z,4.82
2023-03-16T05:38:32.218Z,4.63
2023-03-16T05:43:48.222Z,5.75
2023-03-16T05:49:04.503Z,3.90
2023-03-16T05:54:20.275Z,3.95
2023-03-16T05:59:36.186Z,4.38
2023-03-16T06:04:51.977Z,5.63
2023-03-16T06:10:09.032Z,5.70
2023-03-16T06:15:25.368Z,5.97
2023-03-16T06:20:41.041Z,5.43
2023-03-16T06:25:56.975Z,5.18
2023-03-16T06:31:12.668Z,5.55
2023-03-16T06:36:28.655Z,4.72
2023-03-16T06:41:44.522Z,10.02
2023-03-16T06:47:00.463Z,5.32
2023-03-16T06:52:15.943Z,4.25
2023-03-16T06:57:31.482Z,4.75
2023-03-16T07:02:47.549Z,4.10
2023-03-16T07:08:04.451Z,3.70
2023-03-16T07:13:21.656Z,4.05
2023-03-16T07:18:40.229Z,3.30
2023-03-16T07:23:56.292Z,3.53
2023-03-16T07:29:12.584Z,3.42
2023-03-16T07:34:28.337Z,3.10
2023-03-16T07:39:44.158Z,2.67
2023-03-16T07:45:00.249Z,2.78
2023-03-16T07:50:17.117Z,3.10
2023-03-16T07:55:32.971Z,1.85
2023-03-16T08:00:48.439Z,1.88
2023-03-16T08:06:05.664Z,1.48
2023-03-16T08:11:24.060Z,1.63
2023-03-16T08:16:40.012Z,1.50
2023-03-16T08:22:01.533Z,2.15
2023-03-16T08:27:19.928Z,1.98
2023-03-16T08:32:35.989Z,1.27
2023-03-16T08:37:51.858Z,1.27
2023-03-16T08:43:08.568Z,1.33
2023-03-16T08:48:24.179Z,1.25
2023-03-16T08:53:40.023Z,1.23
2023-03-16T08:58:57.669Z,1.17
2023-03-16T09:04:13.524Z,1.30
2023-03-16T09:09:31.117Z,1.50
2023-03-16T09:14:46.921Z,1.50
2023-03-16T09:20:21.840Z,0.95
2023-03-16T09:25:38.410Z,2.08
2023-03-16T09:30:55.574Z,1.15
2023-03-16T09:36:12.181Z,0.93
2023-03-16T09:41:34.700Z,0.82
2023-03-16T09:46:52.028Z,0.70
2023-03-16T09:52:31.525Z,0.82
2023-03-16T09:57:47.829Z,0.60
2023-03-16T10:03:18.903Z,0.63
2023-03-16T10:08:43.240Z,0.40
2023-03-16T10:14:20.295Z,0.73
2023-03-16T10:19:51.514Z,0.85
2023-03-16T10:25:16.593Z,0.90
2023-03-16T10:30:34.960Z,0.60
2023-03-16T10:36:04.146Z,0.93
2023-03-16T10:41:22.819Z,0.80
2023-03-16T10:46:54.476Z,0.70
2023-03-16T10:52:34.680Z,0.98
2023-03-16T10:57:55.456Z,1.20
2023-03-16T11:03:23.146Z,0.63
2023-03-16T11:08:41.852Z,0.60
2023-03-16T11:14:00.010Z,0.70
2023-03-16T11:19:24.304Z,0.55
2023-03-16T11:25:09.563Z,0.85
2023-03-16T11:30:40.391Z,0.60
2023-03-16T11:36:30.124Z,1.10
2023-03-16T11:41:58.871Z,0.70
2023-03-16T11:47:54.545Z,1.08
2023-03-16T11:53:38.426Z,0.70
2023-03-16T11:58:54.068Z,0.80
2023-03-16T12:04:20.756Z,0.68
2023-03-16T12:10:02.437Z,0.60
2023-03-16T12:15:28.160Z,1.10
2023-03-16T12:20:50.101Z,0.80
2023-03-16T12:26:06.344Z,0.68
2023-03-16T12:31:34.550Z,0.88
2023-03-16T12:37:18.689Z,0.60
2023-03-16T12:42:55.427Z,0.93
2023-03-16T12:48:31.688Z,0.60
2023-03-16T12:53:55.333Z,0.60
2023-03-16T12:59:21.438Z,0.80
2023-03-16T13:04:43.310Z,0.93
2023-03-16T13:10:10.195Z,0.77
2023-03-16T13:15:26.855Z,0.73
2023-03-16T13:21:04.722Z,0.88
2023-03-16T13:26:38.462Z,1.10
2023-03-16T13:32:00.517Z,1.13
2023-03-16T13:37:20.010Z,0.70
2023-03-16T13:42:37.408Z,0.82
2023-03-16T13:47:53.623Z,0.60
2023-03-16T13:53:35.568Z,0.95
2023-03-16T13:58:52.968Z,0.80
2023-03-16T14:04:18.051Z,0.75
2023-03-16T14:09:35.730Z,1.27
2023-03-16T14:14:56.160Z,0.93
2023-03-16T14:20:26.248Z,0.70
2023-03-16T14:25:41.996Z,0.70
2023-03-16T14:31:09.612Z,0.50
2023-03-16T14:36:36.391Z,0.60
2023-03-16T14:41:53.007Z,1.02
2023-03-16T14:47:17.679Z,0.82
2023-03-16T14:52:34.381Z,0.80
2023-03-16T14:57:51.664Z,0.75
2023-03-16T15:03:14.393Z,1.23
2023-03-16T15:08:33.917Z,0.80
2023-03-16T15:13:49.637Z,0.60
2023-03-16T15:19:05.702Z,1.00
2023-03-16T15:24:22.109Z,0.68
2023-03-16T15:29:38.378Z,0.60
2023-03-16T15:34:53.972Z,0.80
2023-03-16T15:40:23.543Z,0.70
2023-03-16T15:45:39.297Z,1.70
2023-03-16T15:50:56.818Z,0.85
2023-03-16T15:56:20.087Z,0.70
2023-03-16T16:01:45.467Z,0.60
2023-03-16T16:07:03.310Z,0.65
2023-03-16T16:12:26.967Z,0.80
2023-03-16T16:17:57.346Z,0.93
2023-03-16T16:23:18.374Z,0.95
2023-03-16T16:28:35.554Z,0.70
2023-03-16T16:33:51.931Z,0.80
2023-03-16T16:39:07.756Z,1.02
2023-03-16T16:44:27.708Z,1.30
2023-03-16T16:49:43.635Z,1.23
2023-03-16T16:54:59.872Z,0.70
2023-03-16T17:00:25.156Z,0.80
2023-03-16T17:05:41.233Z,0.88
2023-03-16T17:10:57.654Z,1.33
2023-03-16T17:16:16.845Z,1.13
2023-03-16T17:21:32.712Z,1.67
2023-03-16T17:26:51.239Z,1.63
2023-03-16T17:32:18.667Z,1.73
2023-03-16T17:37:34.656Z,1.45
2023-03-16T17:42:51.335Z,2.28
2023-03-16T17:48:14.980Z,1.70
2023-03-16T17:53:31.457Z,3.45
2023-03-16T17:58:51.446Z,6.70
2023-03-16T18:04:17.724Z,5.88
2023-03-16T18:09:33.313Z,6.40
2023-03-16T18:14:49.282Z,8.90
2023-03-16T18:20:11.127Z,6.45
2023-03-16T18:25:34.254Z,4.40
2023-03-16T18:30:53.096Z,4.45
2023-03-16T18:36:20.606Z,4.10
2023-03-16T18:41:36.900Z,3.60
2023-03-16T18:46:57.652Z,3.25
2023-03-16T18:57:43.862Z,3.05
2023-03-16T19:03:03.674Z,3.67
2023-03-16T19:08:20.273Z,3.50
2023-03-16T19:13:35.947Z,4.35
2023-03-16T19:18:51.805Z,4.25
2023-03-16T19:24:08.585Z,5.13
2023-03-16T19:29:35.408Z,6.13
2023-03-16T19:34:51.445Z,5.80
2023-03-16T19:40:07.604Z,5.30
2023-03-16T19:45:29.148Z,5.03
2023-03-16T19:50:45.244Z,4.93
2023-03-16T19:56:01.419Z,6.57
2023-03-16T20:01:33.112Z,4.97
2023-03-16T20:06:50.039Z,5.65
2023-03-16T20:12:07.041Z,5.78
2023-03-16T20:17:29.155Z,5.63
2023-03-16T20:22:45.672Z,5.95
2023-03-16T20:28:02.360Z,5.18
2023-03-16T20:33:24.250Z,6.68
2023-03-16T20:38:40.190Z,4.88
2023-03-16T20:43:58.771Z,5.68
2023-03-16T20:49:25.429Z,5.30
2023-03-16T20:54:41.069Z,5.25
2023-03-16T20:59:57.348Z,4.97
2023-03-16T21:05:16.169Z,4.00
2023-03-16T21:10:32.792Z,5.10
2023-03-16T21:15:52.426Z,3.75
2023-03-16T21:21:16.744Z,5.55
2023-03-16T21:26:34.218Z,3.85
2023-03-16T21:31:50.279Z,4.28
2023-03-16T21:37:16.378Z,4.00
2023-03-16T21:42:32.431Z,3.83
2023-03-16T21:47:48.322Z,3.83
2023-03-16T21:53:04.916Z,3.97
2023-03-16T21:58:21.342Z,3.30
2023-03-16T22:03:50.394Z,3.65
2023-03-16T22:09:14.964Z,3.17
2023-03-16T22:14:30.681Z,3.10
2023-03-16T22:19:47.137Z,3.28
2023-03-16T22:25:03.060Z,3.25
2023-03-16T22:30:28.107Z,2.83
2023-03-16T22:35:44.228Z,3.67
2023-03-16T22:41:00.174Z,3.20
2023-03-16T22:46:23.718Z,3.42
2023-03-16T22:51:39.540Z,3.70
2023-03-16T22:56:55.233Z,3.13
2023-03-16T23:02:15.671Z,3.58
2023-03-16T23:07:31.255Z,3.13
2023-03-16T23:12:47.258Z,3.25
2023-03-16T23:18:02.852Z,2.63
2023-03-16T23:23:19.615Z,3.20
2023-03-16T23:28:35.468Z,2.92
2023-03-16T23:33:51.498Z,3.25
2023-03-16T23:39:07.760Z,3.05
2023-03-16T23:44:26.628Z,3.63
2023-03-16T23:49:43.235Z,2.90
2023-03-16T23:55:01.074Z,3.30
